createdAt,value
2022-11-30T00:05:01.392Z,1570
2022-11-30T00:10:19.851Z,1570
2022-11-30T00:15:38.060Z,1566
2022-11-30T00:20:56.291Z,1554
2022-11-30T00:26:14.759Z,1554
2022-11-30T00:31:33.572Z,1554
2022-11-30T00:36:52.382Z,1544
2022-11-30T00:58:04.393Z,1533
2022-11-30T01:03:22.888Z,1536
2022-11-30T01:08:40.795Z,1540
2022-11-30T01:13:59.332Z,1543
2022-11-30T01:19:17.792Z,1533
2022-11-30T01:24:36.551Z,1537
2022-11-30T01:29:55.409Z,1580
2022-11-30T01:35:13.631Z,1585
2022-11-30T01:40:32.140Z,1610
2022-11-30T01:45:50.403Z,1633
2022-11-30T01:51:08.868Z,1663
2022-11-30T01:56:27.371Z,1674
2022-11-30T02:01:45.903Z,1688
2022-11-30T02:07:04.465Z,1699
2022-11-30T02:12:23.247Z,1710
2022-11-30T02:17:42.038Z,1712
2022-11-30T02:23:00.507Z,1720
2022-11-30T02:28:19.257Z,1730
2022-11-30T02:33:37.537Z,1736
2022-11-30T02:38:56.304Z,1744
2022-11-30T02:44:14.943Z,1747
2022-11-30T02:49:32.877Z,1741
2022-11-30T02:54:51.075Z,1740
2022-11-30T03:00:08.973Z,1732
2022-11-30T03:05:27.477Z,1723
2022-11-30T03:10:45.374Z,1725
2022-11-30T03:16:04.184Z,1729
2022-11-30T03:21:07.325Z,1722
2022-11-30T03:26:25.208Z,1723
2022-11-30T03:31:43.994Z,1719
2022-11-30T03:37:02.541Z,1720
2022-11-30T03:42:20.995Z,1707
2022-11-30T03:47:39.498Z,1693
2022-11-30T03:52:58.000Z,1686
2022-11-30T03:58:16.203Z,1682
2022-11-30T04:03:34.651Z,1672
2022-11-30T04:08:53.188Z,1669
2022-11-30T04:14:11.094Z,1660
2022-11-30T04:19:29.862Z,1658
2022-11-30T04:24:48.581Z,1635
2022-11-30T04:30:07.900Z,1627
2022-11-30T04:35:26.124Z,1624
2022-11-30T04:40:44.895Z,1622
2022-11-30T04:46:03.368Z,1623
2022-11-30T04:51:21.866Z,1618
2022-11-30T04:56:39.822Z,1605
2022-11-30T05:01:58.362Z,1607
2022-11-30T05:07:16.469Z,1608
2022-11-30T05:12:35.063Z,1619
2022-11-30T05:17:53.273Z,1621
2022-11-30T05:23:11.730Z,1613
2022-11-30T05:28:30.248Z,1599
2022-11-30T05:33:48.995Z,1608
2022-11-30T05:39:07.493Z,1582
2022-11-30T05:44:26.014Z,1527
2022-11-30T05:49:43.916Z,1514
2022-11-30T05:55:02.443Z,1515
2022-11-30T06:00:20.354Z,1526
2022-11-30T06:05:38.533Z,1542
2022-11-30T06:10:57.290Z,1545
2022-11-30T06:16:15.274Z,1530
2022-11-30T06:21:34.024Z,1526
2022-11-30T06:26:52.472Z,1535
2022-11-30T06:32:11.273Z,1532
2022-11-30T06:37:29.474Z,1522
2022-11-30T06:42:48.216Z,1512
2022-11-30T06:48:06.187Z,1502
2022-11-30T06:53:24.641Z,1506
2022-11-30T06:58:43.146Z,1504
2022-11-30T07:04:01.690Z,1512
2022-11-30T07:09:20.041Z,1513
2022-11-30T07:14:38.526Z,1510
2022-11-30T07:19:57.031Z,1484
2022-11-30T07:25:15.496Z,1492
2022-11-30T07:30:33.748Z,1496
2022-11-30T07:35:52.519Z,1488
2022-11-30T07:40:56.768Z,1489
2022-11-30T07:46:15.303Z,1483
2022-11-30T07:51:34.012Z,1479
2022-11-30T07:56:51.930Z,1486
2022-11-30T08:01:55.317Z,1486
2022-11-30T08:07:14.041Z,1483
2022-11-30T08:12:32.088Z,1497
2022-11-30T08:17:50.566Z,1527
2022-11-30T08:23:09.089Z,1558
2022-11-30T08:28:27.285Z,1606
2022-11-30T08:33:45.782Z,1344
2022-11-30T08:39:04.004Z,1336
2022-11-30T08:44:22.614Z,1346
2022-11-30T08:49:41.379Z,1341
2022-11-30T08:54:59.895Z,1339
2022-11-30T09:00:18.648Z,1337
2022-11-30T09:05:36.834Z,1335
2022-11-30T09:10:55.642Z,1333
2022-11-30T09:16:14.171Z,1318
2022-11-30T09:21:32.648Z,1326
2022-11-30T09:26:51.143Z,1330
2022-11-30T09:32:09.347Z,1329
2022-11-30T09:37:27.811Z,1335
2022-11-30T09:42:46.614Z,1329
2022-11-30T09:48:05.097Z,1327
2022-11-30T09:53:29.082Z,1323
2022-11-30T09:58:48.255Z,1319
2022-11-30T10:04:06.606Z,1319
2022-11-30T10:09:25.344Z,1317
2022-11-30T10:14:44.155Z,1318
2022-11-30T10:20:04.162Z,1336
2022-11-30T10:25:22.395Z,1332
2022-11-30T10:30:40.896Z,1323
2022-11-30T10:35:59.719Z,1312
2022-11-30T10:41:17.656Z,1305
2022-11-30T10:46:36.169Z,1302
2022-11-30T10:51:56.122Z,1292
2022-11-30T10:57:14.861Z,1286
2022-11-30T11:02:33.681Z,1291
2022-11-30T11:07:52.141Z,1295
2022-11-30T11:13:10.562Z,1294
2022-11-30T11:18:28.887Z,1282
2022-11-30T11:23:47.460Z,1273
2022-11-30T11:29:05.944Z,1262
2022-11-30T11:34:24.442Z,1251
2022-11-30T11:39:42.922Z,1245
2022-11-30T11:45:01.679Z,1239
2022-11-30T11:50:27.251Z,1241
2022-11-30T11:56:25.891Z,1234
2022-11-30T12:01:43.855Z,1228
2022-11-30T12:07:02.640Z,1218
2022-11-30T12:12:21.093Z,1206
2022-11-30T12:17:39.330Z,1195
2022-11-30T12:22:58.107Z,1187
2022-11-30T12:28:16.031Z,1185
2022-11-30T12:33:34.239Z,1171
2022-11-30T12:38:53.066Z,1155
2022-11-30T12:44:11.248Z,1149
2022-11-30T12:49:30.008Z,1143
2022-11-30T12:54:49.007Z,1136
2022-11-30T13:00:07.884Z,1133
2022-11-30T13:05:26.301Z,1134
2022-11-30T13:10:45.053Z,1137
2022-11-30T13:16:03.859Z,1165
2022-11-30T13:21:22.292Z,1165
2022-11-30T13:26:40.542Z,1159
2022-11-30T13:31:59.390Z,1162
2022-11-30T13:37:18.746Z,1153
2022-11-30T13:42:50.309Z,1154
2022-11-30T13:48:10.124Z,1152
2022-11-30T13:53:28.339Z,1154
2022-11-30T13:58:46.876Z,1146
2022-11-30T14:04:05.148Z,1139
2022-11-30T14:09:23.337Z,1133
2022-11-30T14:14:45.052Z,1140
2022-11-30T14:20:04.824Z,1141
2022-11-30T14:25:23.300Z,1140
2022-11-30T14:30:41.822Z,1139
2022-11-30T14:36:00.582Z,1139
2022-11-30T14:41:19.359Z,1134
2022-11-30T14:46:37.964Z,1142
2022-11-30T14:51:40.885Z,1135
2022-11-30T14:56:59.084Z,1133
2022-11-30T15:02:17.927Z,1153
2022-11-30T15:07:20.579Z,1187
2022-11-30T15:12:39.145Z,1194
2022-11-30T15:17:57.074Z,1186
2022-11-30T15:23:15.282Z,1179
2022-11-30T15:28:33.510Z,1175
2022-11-30T15:33:52.361Z,1187
2022-11-30T15:39:11.102Z,1167
2022-11-30T15:44:29.881Z,1148
2022-11-30T15:49:48.650Z,1130
2022-11-30T15:55:07.832Z,1125
2022-11-30T16:00:26.004Z,1112
2022-11-30T16:05:44.246Z,1103
2022-11-30T16:11:07.551Z,1098
2022-11-30T16:16:26.461Z,1102
2022-11-30T16:21:44.864Z,1113
2022-11-30T16:27:02.777Z,1146
2022-11-30T16:32:21.554Z,1162
2022-11-30T16:37:40.305Z,1170
2022-11-30T16:42:58.794Z,1171
2022-11-30T16:48:17.264Z,1166
2022-11-30T16:53:36.203Z,1158
2022-11-30T16:58:54.770Z,1152
2022-11-30T17:04:12.699Z,1142
2022-11-30T17:09:31.220Z,1134
2022-11-30T17:14:49.984Z,1141
2022-11-30T17:20:08.854Z,1151
2022-11-30T17:25:27.624Z,1147
2022-11-30T17:30:46.158Z,1225
2022-11-30T17:36:04.957Z,1158
2022-11-30T17:41:23.807Z,1162
2022-11-30T17:46:46.791Z,1175
2022-11-30T17:52:06.708Z,1193
2022-11-30T17:57:26.249Z,1229
2022-11-30T18:02:44.548Z,1223
2022-11-30T18:08:03.013Z,1223
2022-11-30T18:13:21.516Z,1223
2022-11-30T18:18:44.355Z,1225
2022-11-30T18:23:51.083Z,1228
2022-11-30T18:28:54.280Z,1241
2022-11-30T18:34:12.455Z,1238
2022-11-30T18:39:31.259Z,1235
2022-11-30T18:44:50.136Z,1229
2022-11-30T18:50:09.169Z,1227
2022-11-30T18:55:27.903Z,1224
2022-11-30T19:00:46.447Z,1222
2022-11-30T19:06:05.175Z,1214
2022-11-30T19:11:23.701Z,1262
2022-11-30T19:16:41.685Z,1293
2022-11-30T19:22:00.180Z,1292
2022-11-30T19:27:18.499Z,1291
2022-11-30T19:32:37.037Z,1291
2022-11-30T19:37:55.505Z,1291
2022-11-30T19:43:14.316Z,1285
2022-11-30T19:48:32.787Z,1279
2022-11-30T19:53:51.551Z,1278
2022-11-30T19:59:10.288Z,1267
2022-11-30T20:04:35.375Z,1266
2022-11-30T20:09:53.310Z,1263
2022-11-30T20:15:12.072Z,1254
2022-11-30T20:20:30.868Z,1248
2022-11-30T20:25:49.069Z,1246
2022-11-30T20:31:07.995Z,1253
2022-11-30T20:36:27.025Z,1292
2022-11-30T20:41:45.830Z,1341
2022-11-30T20:46:48.669Z,1374
2022-11-30T20:52:07.169Z,1396
2022-11-30T20:57:25.503Z,1437
2022-11-30T21:02:43.976Z,1483
2022-11-30T21:08:02.430Z,1505
2022-11-30T21:13:20.931Z,1501
2022-11-30T21:18:39.699Z,1490
2022-11-30T21:23:58.202Z,1480
2022-11-30T21:29:16.678Z,1469
2022-11-30T21:34:35.131Z,1474
2022-11-30T21:39:53.867Z,1490
2022-11-30T21:45:12.313Z,1513
2022-11-30T21:50:31.080Z,1516
2022-11-30T21:55:54.324Z,1526
2022-11-30T22:01:13.839Z,1536
2022-11-30T22:06:32.038Z,1535
2022-11-30T22:11:50.541Z,1541
2022-11-30T22:17:09.013Z,1534
2022-11-30T22:22:27.498Z,1539
2022-11-30T22:27:46.033Z,1546
2022-11-30T22:33:04.227Z,1557
2022-11-30T22:38:23.026Z,1552
2022-11-30T22:43:41.235Z,1553
2022-11-30T22:48:59.719Z,1565
2022-11-30T22:54:18.508Z,1565
2022-11-30T22:59:37.057Z,1571
2022-11-30T23:04:55.050Z,1581
2022-11-30T23:10:13.551Z,1587
2022-11-30T23:15:32.333Z,1594
2022-11-30T23:20:50.552Z,1606
2022-11-30T23:26:09.021Z,1597
2022-11-30T23:31:32.817Z,1595
2022-11-30T23:36:54.242Z,1585
2022-11-30T23:42:13.014Z,1617
2022-11-30T23:47:31.527Z,1595
2022-11-30T23:52:49.463Z,1596
2022-11-30T23:58:07.939Z,1615
